createdAt,value
2018-07-28T00:01:45.361Z,12.90
2018-07-28T00:04:14.696Z,13.70
2018-07-28T00:06:44.414Z,12.67
2018-07-28T00:09:14.153Z,12.23
2018-07-28T00:11:43.410Z,15.20
2018-07-28T00:14:13.016Z,12.83
2018-07-28T00:16:43.019Z,13.63
2018-07-28T00:19:12.578Z,13.20
2018-07-28T00:21:42.321Z,12.50
2018-07-28T00:24:11.597Z,13.63
2018-07-28T00:26:40.900Z,13.30
2018-07-28T00:29:10.498Z,13.50
2018-07-28T00:31:40.835Z,13.40
2018-07-28T00:34:10.104Z,14.67
2018-07-28T00:36:39.427Z,15.00
2018-07-28T00:39:12.756Z,12.67
2018-07-28T00:41:42.125Z,12.30
2018-07-28T00:44:11.347Z,14.13
2018-07-28T00:46:40.596Z,12.97
2018-07-28T00:49:10.204Z,14.20
2018-07-28T00:51:39.750Z,14.23
2018-07-28T00:54:09.044Z,13.17
2018-07-28T00:56:38.299Z,13.03
2018-07-28T00:59:08.113Z,14.57
2018-07-28T01:01:37.370Z,15.03
2018-07-28T01:04:06.649Z,15.13
2018-07-28T01:06:35.901Z,14.13
2018-07-28T01:09:08.291Z,13.40
2018-07-28T01:11:38.260Z,17.23
2018-07-28T01:14:07.657Z,12.90
2018-07-28T01:16:36.959Z,14.10
2018-07-28T01:19:06.266Z,14.43
2018-07-28T01:21:36.320Z,14.77
2018-07-28T01:24:06.346Z,15.63
2018-07-28T01:26:35.589Z,13.93
2018-07-28T01:29:10.405Z,17.50
2018-07-28T01:31:39.646Z,15.10
2018-07-28T01:34:08.926Z,14.53
2018-07-28T01:36:38.419Z,14.67
2018-07-28T01:39:12.656Z,13.57
2018-07-28T01:41:43.255Z,13.53
2018-07-28T01:44:12.818Z,14.73
2018-07-28T01:46:42.883Z,13.93
2018-07-28T01:49:12.125Z,14.40
2018-07-28T01:51:41.407Z,13.93
2018-07-28T01:54:11.083Z,13.77
2018-07-28T01:56:40.347Z,14.60
2018-07-28T01:59:10.019Z,14.07
2018-07-28T02:01:39.718Z,14.50
2018-07-28T02:04:09.376Z,14.40
2018-07-28T02:06:38.627Z,13.13
2018-07-28T02:09:10.467Z,14.33
2018-07-28T02:11:39.887Z,13.30
2018-07-28T02:14:09.988Z,12.57
2018-07-28T02:16:39.250Z,14.03
2018-07-28T02:19:09.288Z,13.73
2018-07-28T02:21:38.555Z,18.00
2018-07-28T02:24:08.163Z,14.13
2018-07-28T02:26:39.315Z,14.57
2018-07-28T02:29:09.794Z,14.73
2018-07-28T02:31:39.035Z,15.03
2018-07-28T02:34:08.812Z,14.47
2018-07-28T02:36:38.861Z,18.17
2018-07-28T02:39:10.489Z,19.70
2018-07-28T02:41:39.946Z,20.60
2018-07-28T02:44:09.871Z,17.00
2018-07-28T02:46:39.734Z,17.40
2018-07-28T02:49:09.351Z,16.63
2018-07-28T02:51:38.592Z,16.00
2018-07-28T02:54:07.902Z,16.50
2018-07-28T02:56:37.476Z,18.03
2018-07-28T02:59:06.786Z,16.20
2018-07-28T03:01:36.851Z,17.00
2018-07-28T03:04:06.309Z,14.87
2018-07-28T03:06:35.574Z,16.13
2018-07-28T03:09:08.578Z,16.60
2018-07-28T03:11:38.363Z,16.00
2018-07-28T03:14:08.026Z,16.20
2018-07-28T03:16:37.344Z,19.43
2018-07-28T03:19:06.812Z,19.50
2018-07-28T03:21:36.686Z,20.43
2018-07-28T03:24:06.082Z,17.00
2018-07-28T03:26:35.701Z,16.83
2018-07-28T03:29:04.938Z,16.63
2018-07-28T03:31:34.684Z,16.93
2018-07-28T03:34:03.942Z,17.30
2018-07-28T03:36:33.261Z,17.37
2018-07-28T03:39:02.923Z,17.47
2018-07-28T03:41:32.631Z,19.20
2018-07-28T03:44:01.903Z,18.30
2018-07-28T03:46:31.162Z,21.27
2018-07-28T03:49:00.795Z,21.10
2018-07-28T03:51:30.210Z,18.07
2018-07-28T03:53:59.448Z,17.97
2018-07-28T03:56:29.075Z,18.33
2018-07-28T03:58:58.319Z,19.80
2018-07-28T04:01:28.015Z,19.37
2018-07-28T04:03:57.523Z,19.93
2018-07-28T04:06:27.679Z,19.23
2018-07-28T04:08:56.943Z,18.70
2018-07-28T04:11:26.190Z,18.03
2018-07-28T04:13:55.968Z,18.17
2018-07-28T04:16:25.663Z,18.40
2018-07-28T04:18:55.057Z,19.93
2018-07-28T04:21:24.314Z,19.37
2018-07-28T04:23:54.443Z,21.33
2018-07-28T04:26:23.680Z,18.63
2018-07-28T04:28:52.959Z,18.73
2018-07-28T04:31:22.576Z,17.57
2018-07-28T04:33:51.590Z,17.50
2018-07-28T04:36:20.851Z,18.80
2018-07-28T04:38:50.389Z,19.10
2018-07-28T04:41:19.951Z,18.20
2018-07-28T04:43:49.982Z,16.53
2018-07-28T04:46:19.220Z,16.80
2018-07-28T04:48:48.529Z,16.90
2018-07-28T04:51:17.844Z,16.53
2018-07-28T04:53:47.429Z,16.97
2018-07-28T04:56:16.692Z,17.43
2018-07-28T04:58:46.044Z,17.93
2018-07-28T05:01:15.343Z,24.33
2018-07-28T05:03:44.607Z,17.77
2018-07-28T05:06:13.946Z,20.43
2018-07-28T05:08:43.220Z,19.03
2018-07-28T05:11:12.884Z,20.50
2018-07-28T05:13:42.838Z,18.23
2018-07-28T05:16:12.117Z,20.53
2018-07-28T05:18:41.724Z,20.80
2018-07-28T05:21:11.004Z,22.77
2018-07-28T05:23:40.505Z,27.30
2018-07-28T05:26:10.269Z,23.93
2018-07-28T05:28:39.604Z,24.17
2018-07-28T05:31:08.866Z,26.83
2018-07-28T05:33:38.207Z,26.70
2018-07-28T05:36:07.528Z,25.57
2018-07-28T05:38:36.829Z,26.37
2018-07-28T05:41:06.108Z,26.10
2018-07-28T05:43:35.423Z,28.73
2018-07-28T05:46:04.719Z,25.87
2018-07-28T05:48:34.284Z,32.30
2018-07-28T05:51:03.565Z,27.40
2018-07-28T05:53:32.867Z,26.07
2018-07-28T05:56:02.160Z,27.97
2018-07-28T05:58:31.824Z,26.97
2018-07-28T06:01:01.291Z,26.00
2018-07-28T06:03:30.582Z,23.77
2018-07-28T06:05:59.851Z,24.03
2018-07-28T06:08:29.071Z,23.00
2018-07-28T06:10:58.331Z,17.43
2018-07-28T06:13:27.660Z,16.43
2018-07-28T06:15:56.946Z,13.73
2018-07-28T06:18:26.177Z,12.90
2018-07-28T06:20:55.443Z,12.20
2018-07-28T06:23:24.740Z,11.43
2018-07-28T06:25:54.027Z,13.03
2018-07-28T06:28:29.527Z,9.60
2018-07-28T06:30:59.040Z,9.70
2018-07-28T06:33:28.282Z,15.23
2018-07-28T06:35:57.572Z,9.90
2018-07-28T06:38:27.233Z,9.50
2018-07-28T06:40:56.494Z,10.13
2018-07-28T06:43:26.208Z,12.70
2018-07-28T06:45:55.479Z,13.10
2018-07-28T06:48:24.689Z,15.10
2018-07-28T06:50:53.931Z,15.53
2018-07-28T06:53:23.199Z,14.77
2018-07-28T06:55:52.458Z,16.73
2018-07-28T06:58:21.971Z,15.57
2018-07-28T07:00:51.264Z,13.87
2018-07-28T07:03:20.951Z,15.03
2018-07-28T07:05:50.241Z,13.50
2018-07-28T07:08:19.531Z,12.23
2018-07-28T07:10:48.828Z,14.10
2018-07-28T07:13:18.063Z,15.83
2018-07-28T07:15:47.314Z,14.53
2018-07-28T07:18:16.604Z,12.03
2018-07-28T07:20:45.834Z,11.83
2018-07-28T07:23:15.090Z,15.27
2018-07-28T07:25:44.618Z,9.47
2018-07-28T07:28:14.267Z,10.10
2018-07-28T07:30:44.044Z,10.37
2018-07-28T07:33:13.413Z,14.93
2018-07-28T07:35:43.086Z,9.53
2018-07-28T07:38:12.456Z,9.83
2018-07-28T07:40:42.181Z,9.30
2018-07-28T07:43:11.914Z,10.00
2018-07-28T07:45:41.189Z,9.60
2018-07-28T07:48:10.775Z,9.17
2018-07-28T07:50:39.997Z,8.73
2018-07-28T07:53:09.135Z,12.50
2018-07-28T07:55:38.422Z,11.10
2018-07-28T07:58:07.712Z,9.13
2018-07-28T08:00:37.554Z,9.30
2018-07-28T08:03:07.077Z,8.30
2018-07-28T08:05:36.318Z,10.37
2018-07-28T08:08:05.666Z,9.37
2018-07-28T08:10:34.939Z,8.23
2018-07-28T08:13:04.174Z,8.30
2018-07-28T08:15:33.874Z,8.40
2018-07-28T08:18:03.161Z,8.80
2018-07-28T08:20:32.519Z,15.20
2018-07-28T08:23:05.557Z,8.80
2018-07-28T08:25:34.819Z,7.70
2018-07-28T08:28:04.130Z,9.37
2018-07-28T08:30:33.732Z,8.70
2018-07-28T08:33:04.411Z,8.63
2018-07-28T08:35:34.058Z,8.60
2018-07-28T08:38:04.317Z,9.40
2018-07-28T08:40:33.567Z,8.50
2018-07-28T08:43:03.276Z,8.00
2018-07-28T08:45:32.506Z,7.60
2018-07-28T08:48:02.137Z,7.33
2018-07-28T08:50:31.445Z,7.77
2018-07-28T08:53:00.688Z,7.70
2018-07-28T08:55:30.750Z,9.60
2018-07-28T08:58:00.206Z,6.97
2018-07-28T09:00:29.431Z,8.60
2018-07-28T09:02:58.724Z,6.70
2018-07-28T09:05:28.303Z,7.80
2018-07-28T09:07:57.870Z,5.50
2018-07-28T09:10:27.119Z,4.13
2018-07-28T09:12:56.726Z,3.93
2018-07-28T09:15:26.444Z,5.47
2018-07-28T09:17:55.799Z,4.00
2018-07-28T09:20:25.468Z,1.93
2018-07-28T09:22:54.590Z,1.77
2018-07-28T09:25:23.851Z,2.83
2018-07-28T09:27:52.875Z,3.33
2018-07-28T09:30:22.160Z,1.83
2018-07-28T09:32:51.747Z,1.63
2018-07-28T09:35:22.065Z,2.63
2018-07-28T09:37:51.545Z,1.60
2018-07-28T09:40:22.238Z,1.30
2018-07-28T09:42:51.469Z,3.80
2018-07-28T09:45:20.724Z,6.13
2018-07-28T09:47:50.675Z,1.63
2018-07-28T09:50:20.145Z,1.57
2018-07-28T09:52:50.547Z,1.20
2018-07-28T09:55:20.312Z,1.80
2018-07-28T09:57:49.571Z,1.13
2018-07-28T10:00:24.226Z,1.30
2018-07-28T10:02:53.962Z,3.33
2018-07-28T10:05:23.219Z,1.37
2018-07-28T10:07:52.580Z,4.33
2018-07-28T10:10:21.829Z,3.03
2018-07-28T10:12:51.360Z,2.23
2018-07-28T10:15:20.659Z,3.93
2018-07-28T10:17:49.917Z,2.00
2018-07-28T10:20:19.010Z,1.50
2018-07-28T10:22:48.151Z,1.90
2018-07-28T10:25:17.892Z,2.70
2018-07-28T10:27:47.163Z,1.57
2018-07-28T10:30:16.474Z,3.17
2018-07-28T10:32:46.217Z,7.30
2018-07-28T10:35:15.523Z,3.73
2018-07-28T10:37:45.246Z,3.73
2018-07-28T10:40:15.175Z,6.83
2018-07-28T10:42:44.498Z,5.37
2018-07-28T10:45:13.730Z,7.20
2018-07-28T10:47:43.028Z,5.83
2018-07-28T10:50:12.301Z,6.10
2018-07-28T10:52:41.531Z,5.80
2018-07-28T10:55:10.856Z,5.80
2018-07-28T10:57:40.120Z,4.93
2018-07-28T11:00:10.711Z,6.67
2018-07-28T11:02:40.236Z,6.63
2018-07-28T11:05:09.522Z,4.80
2018-07-28T11:07:39.293Z,6.40
2018-07-28T11:10:09.242Z,3.90
2018-07-28T11:12:38.498Z,4.57
2018-07-28T11:15:09.151Z,3.97
2018-07-28T11:17:38.733Z,4.70
2018-07-28T11:20:10.156Z,7.03
2018-07-28T11:22:39.764Z,4.47
2018-07-28T11:25:09.689Z,3.33
2018-07-28T11:27:39.181Z,5.30
2018-07-28T11:30:09.488Z,2.50
2018-07-28T11:32:56.025Z,3.03
2018-07-28T11:35:42.474Z,2.47
2018-07-28T11:38:33.854Z,2.10
2018-07-28T11:41:20.299Z,2.03
2018-07-28T11:44:06.937Z,1.90
2018-07-28T11:46:36.178Z,3.10
2018-07-28T11:49:05.518Z,5.00
2018-07-28T11:51:34.780Z,3.93
2018-07-28T11:54:04.048Z,6.83
2018-07-28T11:56:33.384Z,3.60
2018-07-28T11:59:02.632Z,6.80
2018-07-28T12:01:32.371Z,6.00
2018-07-28T12:04:01.942Z,3.60
2018-07-28T12:06:31.198Z,4.90
2018-07-28T12:09:00.863Z,3.47
2018-07-28T12:11:30.213Z,3.40
2018-07-28T12:13:59.492Z,8.10
2018-07-28T12:16:28.854Z,4.03
2018-07-28T12:18:58.127Z,3.10
2018-07-28T12:21:28.172Z,4.70
2018-07-28T12:23:57.427Z,6.20
2018-07-28T12:26:26.771Z,4.27
2018-07-28T12:28:56.028Z,4.20
2018-07-28T12:31:25.361Z,5.00
2018-07-28T12:33:54.788Z,7.97
2018-07-28T12:36:24.035Z,3.60
2018-07-28T12:38:53.671Z,3.67
2018-07-28T12:41:23.733Z,5.23
2018-07-28T12:43:53.447Z,3.70
2018-07-28T12:46:22.679Z,7.97
2018-07-28T12:48:51.979Z,5.10
2018-07-28T12:51:21.307Z,4.63
2018-07-28T12:53:50.556Z,3.90
2018-07-28T12:56:20.340Z,4.07
2018-07-28T12:58:49.546Z,3.07
2018-07-28T13:01:19.216Z,3.93
2018-07-28T13:03:48.495Z,3.20
2018-07-28T13:06:18.140Z,4.57
2018-07-28T13:08:47.391Z,3.23
2018-07-28T13:11:17.042Z,2.83
2018-07-28T13:13:46.331Z,2.90
2018-07-28T13:16:15.599Z,3.03
2018-07-28T13:18:45.249Z,3.30
2018-07-28T13:21:14.450Z,6.20
2018-07-28T13:23:44.561Z,2.67
2018-07-28T13:26:13.671Z,4.50
2018-07-28T13:28:43.358Z,3.03
2018-07-28T13:31:12.575Z,2.97
2018-07-28T13:33:41.806Z,2.70
2018-07-28T13:36:11.120Z,2.07
2018-07-28T13:38:40.404Z,2.60
2018-07-28T13:41:09.665Z,2.60
2018-07-28T13:43:38.992Z,3.43
2018-07-28T13:46:08.263Z,2.60
2018-07-28T13:48:37.551Z,2.50
2018-07-28T13:51:06.754Z,2.63
2018-07-28T13:53:35.974Z,2.40
2018-07-28T13:56:05.455Z,2.67
2018-07-28T13:58:34.755Z,3.77
2018-07-28T14:01:03.999Z,3.57
2018-07-28T14:03:33.505Z,2.53
2018-07-28T14:06:02.890Z,3.77
2018-07-28T14:08:32.215Z,4.80
2018-07-28T14:11:01.788Z,3.10
2018-07-28T14:13:31.092Z,7.40
2018-07-28T14:16:00.654Z,10.10
2018-07-28T14:18:30.518Z,3.57
2018-07-28T14:20:59.908Z,2.73
2018-07-28T14:23:29.627Z,15.90
2018-07-28T14:25:59.466Z,11.40
2018-07-28T14:28:29.148Z,15.57
2018-07-28T14:30:58.401Z,12.73
2018-07-28T14:33:27.665Z,10.53
2018-07-28T14:35:56.936Z,11.90
2018-07-28T14:38:26.224Z,9.13
2018-07-28T14:40:55.451Z,21.70
2018-07-28T14:43:24.733Z,28.60
2018-07-28T14:45:53.957Z,22.73
2018-07-28T14:48:23.573Z,17.00
2018-07-28T14:50:53.598Z,16.97
2018-07-28T14:53:23.046Z,17.60
2018-07-28T14:55:52.364Z,17.10
2018-07-28T14:58:21.982Z,15.63
2018-07-28T15:00:51.244Z,28.33
2018-07-28T15:03:21.801Z,24.47
2018-07-28T15:05:51.012Z,35.07
2018-07-28T15:11:20.227Z,37.25
2018-07-28T15:13:49.495Z,31.23
2018-07-28T15:16:18.775Z,19.60
2018-07-28T15:18:48.136Z,22.43
2018-07-28T15:21:17.665Z,19.80
2018-07-28T15:23:47.155Z,19.93
2018-07-28T15:26:17.180Z,21.00
2018-07-28T15:28:46.843Z,23.80
2018-07-28T15:31:16.903Z,22.17
2018-07-28T15:33:46.332Z,22.10
2018-07-28T15:36:15.626Z,22.33
2018-07-28T15:38:45.116Z,24.80
2018-07-28T15:41:14.840Z,17.50
2018-07-28T15:43:44.161Z,23.37
2018-07-28T15:46:13.443Z,22.73
2018-07-28T15:48:42.678Z,18.80
2018-07-28T15:51:12.564Z,24.50
2018-07-28T15:53:41.834Z,22.20
2018-07-28T15:56:11.611Z,23.57
2018-07-28T15:58:40.871Z,20.10
2018-07-28T16:01:10.979Z,19.47
2018-07-28T16:03:40.642Z,15.17
2018-07-28T16:06:10.221Z,14.10
2018-07-28T16:08:39.448Z,22.43
2018-07-28T16:11:08.778Z,17.13
2018-07-28T16:13:38.443Z,15.90
2018-07-28T16:16:08.184Z,14.73
2018-07-28T16:18:37.787Z,19.27
2018-07-28T16:21:07.012Z,47.77
2018-07-28T16:23:36.308Z,29.23
2018-07-28T16:26:06.559Z,15.77
2018-07-28T16:28:35.805Z,16.33
2018-07-28T16:31:05.119Z,14.40
2018-07-28T16:33:34.635Z,15.90
2018-07-28T16:36:03.972Z,19.90
2018-07-28T16:38:33.199Z,23.60
2018-07-28T16:41:02.503Z,16.40
2018-07-28T16:43:31.737Z,22.77
2018-07-28T16:46:01.020Z,16.70
2018-07-28T16:48:30.618Z,16.23
2018-07-28T16:51:00.012Z,10.83
2018-07-28T16:53:29.293Z,15.73
2018-07-28T16:55:58.621Z,10.53
2018-07-28T16:58:28.200Z,14.40
2018-07-28T17:00:57.468Z,11.27
2018-07-28T17:03:27.907Z,13.30
2018-07-28T17:05:59.585Z,15.00
2018-07-28T17:08:29.892Z,21.33
2018-07-28T17:10:59.278Z,13.40
2018-07-28T17:13:29.159Z,12.27
2018-07-28T17:15:58.762Z,10.10
2018-07-28T17:18:28.472Z,13.30
2018-07-28T17:20:57.752Z,12.07
2018-07-28T17:23:26.986Z,10.00
2018-07-28T17:25:56.242Z,18.03
2018-07-28T17:28:25.581Z,12.07
2018-07-28T17:30:54.945Z,14.73
2018-07-28T17:33:24.659Z,13.80
2018-07-28T17:35:54.569Z,14.60
2018-07-28T17:38:23.846Z,14.87
2018-07-28T17:40:53.229Z,27.93
2018-07-28T17:43:22.564Z,16.00
2018-07-28T17:45:52.191Z,16.23
2018-07-28T17:48:21.479Z,18.03
2018-07-28T17:50:50.734Z,16.20
2018-07-28T17:53:20.032Z,18.67
2018-07-28T17:55:49.667Z,13.60
2018-07-28T17:58:19.261Z,15.83
2018-07-28T18:00:48.503Z,18.23
2018-07-28T18:03:17.732Z,18.87
2018-07-28T18:05:46.963Z,15.43
2018-07-28T18:08:16.256Z,11.97
2018-07-28T18:10:45.514Z,11.53
2018-07-28T18:13:15.362Z,18.40
2018-07-28T18:15:44.904Z,14.50
2018-07-28T18:18:14.205Z,18.27
2018-07-28T18:20:43.441Z,13.73
2018-07-28T18:23:12.871Z,17.77
2018-07-28T18:25:42.388Z,11.93
2018-07-28T18:28:11.938Z,13.17
2018-07-28T18:30:41.669Z,13.63
2018-07-28T18:33:11.110Z,12.60
2018-07-28T18:35:40.443Z,15.43
2018-07-28T18:38:09.736Z,14.83
2018-07-28T18:40:38.983Z,13.13
2018-07-28T18:43:09.267Z,13.80
2018-07-28T18:45:38.589Z,14.17
2018-07-28T18:48:07.887Z,11.53
2018-07-28T18:50:37.601Z,13.17
2018-07-28T18:53:07.535Z,12.10
2018-07-28T18:55:36.849Z,12.80
2018-07-28T18:58:06.543Z,14.10
2018-07-28T19:00:35.916Z,11.47
2018-07-28T19:03:05.617Z,13.20
2018-07-28T19:05:34.883Z,12.90
2018-07-28T19:08:04.793Z,12.70
2018-07-28T19:10:34.117Z,11.30
2018-07-28T19:13:08.730Z,12.37
2018-07-28T19:15:38.108Z,12.60
2018-07-28T19:18:12.944Z,13.27
2018-07-28T19:20:42.203Z,14.63
2018-07-28T19:23:16.743Z,13.47
2018-07-28T19:25:46.153Z,13.53
2018-07-28T19:28:20.675Z,13.60
2018-07-28T19:30:50.288Z,18.40
2018-07-28T19:33:19.603Z,14.93
2018-07-28T19:35:53.977Z,19.50
2018-07-28T19:38:23.258Z,15.13
2018-07-28T19:40:52.996Z,16.33
2018-07-28T19:43:22.253Z,15.70
2018-07-28T19:45:51.579Z,17.97
2018-07-28T19:48:20.983Z,17.00
2018-07-28T19:50:50.216Z,17.00
2018-07-28T19:53:19.524Z,19.07
2018-07-28T19:55:48.796Z,15.57
2018-07-28T19:58:18.331Z,13.93
2018-07-28T20:00:47.874Z,14.50
2018-07-28T20:03:17.151Z,15.23
2018-07-28T20:05:46.814Z,14.70
2018-07-28T20:08:16.123Z,14.67
2018-07-28T20:10:45.972Z,13.03
2018-07-28T20:13:15.451Z,21.63
2018-07-28T20:15:44.787Z,21.53
2018-07-28T20:18:13.875Z,12.07
2018-07-28T20:20:43.209Z,12.07
2018-07-28T20:23:12.609Z,12.27
2018-07-28T20:25:41.879Z,11.67
2018-07-28T20:28:11.019Z,13.70
2018-07-28T20:30:40.663Z,17.63
2018-07-28T20:33:09.852Z,15.57
2018-07-28T20:35:39.343Z,17.13
2018-07-28T20:38:08.627Z,13.47
2018-07-28T20:40:37.943Z,13.90
2018-07-28T20:43:07.269Z,17.63
2018-07-28T20:45:36.571Z,14.27
2018-07-28T20:48:05.919Z,17.73
2018-07-28T20:50:35.466Z,18.20
2018-07-28T20:53:05.131Z,18.03
2018-07-28T20:55:34.378Z,21.13
2018-07-28T20:58:03.649Z,29.40
2018-07-28T21:00:32.922Z,26.77
2018-07-28T21:03:02.196Z,19.03
2018-07-28T21:05:31.491Z,17.13
2018-07-28T21:08:00.755Z,20.03
2018-07-28T21:10:30.006Z,20.07
2018-07-28T21:12:59.494Z,17.07
2018-07-28T21:15:29.077Z,24.80
2018-07-28T21:17:58.375Z,18.37
2018-07-28T21:20:27.696Z,18.30
2018-07-28T21:22:57.285Z,15.93
2018-07-28T21:25:26.583Z,15.00
2018-07-28T21:27:55.923Z,19.57
2018-07-28T21:30:25.259Z,16.70
2018-07-28T21:32:54.499Z,6.23
2018-07-28T21:35:23.824Z,5.97
2018-07-28T21:37:53.387Z,9.37
2018-07-28T21:40:22.649Z,11.33
2018-07-28T21:42:51.880Z,17.20
2018-07-28T21:45:21.099Z,17.13
2018-07-28T21:47:50.372Z,14.40
2018-07-28T21:50:20.512Z,10.90
2018-07-28T21:52:50.249Z,9.10
2018-07-28T21:55:19.870Z,7.77
2018-07-28T21:57:49.589Z,13.20
2018-07-28T22:00:18.854Z,9.10
2018-07-28T22:02:48.181Z,12.27
2018-07-28T22:05:19.710Z,8.03
2018-07-28T22:07:51.111Z,9.67
2018-07-28T22:10:20.457Z,6.80
2018-07-28T22:12:49.759Z,14.43
2018-07-28T22:15:19.010Z,8.20
2018-07-28T22:17:48.299Z,7.73
2018-07-28T22:20:17.647Z,7.20
2018-07-28T22:22:46.960Z,7.17
2018-07-28T22:25:16.210Z,8.50
2018-07-28T22:27:45.482Z,6.80
2018-07-28T22:30:14.745Z,10.57
2018-07-28T22:32:44.033Z,5.73
2018-07-28T22:35:13.610Z,7.63
2018-07-28T22:37:42.917Z,7.50
2018-07-28T22:40:12.191Z,11.17
2018-07-28T22:42:48.504Z,7.03
2018-07-28T22:45:18.583Z,8.17
2018-07-28T22:47:48.171Z,10.30
2018-07-28T22:50:18.210Z,10.20
2018-07-28T22:52:47.445Z,7.80
2018-07-28T22:55:16.767Z,7.40
2018-07-28T22:57:46.362Z,11.03
2018-07-28T23:00:16.172Z,12.67
2018-07-28T23:02:45.436Z,6.03
2018-07-28T23:05:14.666Z,6.73
2018-07-28T23:07:43.996Z,6.10
2018-07-28T23:10:13.568Z,8.20
2018-07-28T23:12:42.831Z,5.80
2018-07-28T23:15:12.062Z,6.57
2018-07-28T23:17:41.831Z,7.40
2018-07-28T23:20:11.357Z,6.60
2018-07-28T23:22:40.641Z,5.30
2018-07-28T23:25:09.893Z,5.63
2018-07-28T23:27:39.169Z,7.27
2018-07-28T23:30:10.771Z,8.60
2018-07-28T23:32:40.323Z,6.03
2018-07-28T23:35:09.940Z,8.47
2018-07-28T23:37:39.960Z,6.07
2018-07-28T23:40:09.398Z,5.70
2018-07-28T23:42:38.617Z,5.50
2018-07-28T23:45:08.539Z,7.30
2018-07-28T23:47:38.244Z,4.90
2018-07-28T23:50:07.500Z,5.33
2018-07-28T23:52:37.087Z,5.30
2018-07-28T23:55:06.660Z,5.83
2018-07-28T23:57:35.964Z,6.70
